D/T METAR WX W/SPE G/SPE TEMP DEWP FEEL
31/01/23 13:20 EGAA 311320Z AUTO 26015KT 9999 FEW029 SCT035 08/04 Q1020 17.3mph 8°C 4°C 7.0°C
31/01/23 12:50 EGAA 311250Z AUTO 28015G27KT 9999 FEW027 SCT036 07/03 Q1021 RERA REUP UP 17.3mph 31.1mph 7°C 3°C 5.7°C
31/01/23 06:50 EGAA 310650Z AUTO 27014KT 9999 FEW038 06/03 Q1019 16.1mph 6°C 3°C 4.7°C
31/01/23 06:20 EGAA 310620Z AUTO 28015KT 9999 FEW023 BKN046 06/04 Q1019 17.3mph 6°C 4°C 5.0°C
30/01/23 22:20 EGAA 302220Z AUTO 22014KT 9999 SCT009 07/06 Q1020 16.1mph 7°C 6°C 6.6°C
30/01/23 12:50 EGAA 301250Z AUTO 22008KT 9999 FEW031 OVC037 06/04 Q1025 9.2mph 6°C 4°C 5.0°C
30/01/23 11:50 EGAA 301150Z AUTO 24009KT 9999 BKN041 07/04 Q1025 10.4mph 7°C 4°C 6.0°C
30/01/23 11:20 EGAA 301120Z AUTO 27012KT 9999 BKN039 06/04 Q1025 13.8mph 6°C 4°C 5.0°C
30/01/23 10:50 EGAA 301050Z AUTO 24008KT 9999 SCT046 06/03 Q1025 9.2mph 6°C 3°C 4.7°C
30/01/23 09:50 EGAA 300950Z AUTO 26009KT 9999 BKN038 05/03 Q1024 10.4mph 5°C 3°C 3.7°C
30/01/23 07:50 EGAA 300750Z AUTO 26010KT 9999 FEW027 04/02 Q1023 11.5mph 4°C 2°C 2.4°C
30/01/23 06:50 EGAA 300650Z AUTO 28016KT 9999 FEW046 05/02 Q1022 18.4mph 5°C 2°C 3.4°C
09/01/23 06:20 EGAA 090620Z AUTO 24012KT 9999 NCD 04/02 Q0991 13.8mph 4°C 2°C 2.4°C
09/01/23 05:50 EGAA 090550Z AUTO 24010KT 9999 SCT029 04/03 Q0991 11.5mph 4°C 3°C 2.7°C
09/01/23 05:20 EGAA 090520Z AUTO 27013KT 9999 FEW029 04/03 Q0990 15.0mph 4°C 3°C 2.7°C
09/01/23 04:50 EGAA 090450Z AUTO 24011KT 9999 SCT031 SCT040 04/03 Q0990 REUP 12.7mph 4°C 3°C 2.7°C
09/01/23 04:20 EGAA 090420Z AUTO 24011KT 9999 FEW029 04/03 Q0989 12.7mph 4°C 3°C 2.7°C
09/01/23 03:50 EGAA 090350Z AUTO 26010KT 9999 NCD 04/02 Q0988 11.5mph 4°C 2°C 2.4°C
09/01/23 03:20 EGAA 090320Z AUTO 27011KT 9999 FEW030 04/03 Q0988 12.7mph 4°C 3°C 2.7°C
09/01/23 02:50 EGAA 090250Z AUTO 26013KT 9999 FEW031 04/03 Q0987 REUP 15.0mph 4°C 3°C 2.7°C
09/01/23 02:20 EGAA 090220Z AUTO 26012KT 9999 -RA FEW017 04/03 Q0986 -RA 13.8mph 4°C 3°C 2.7°C
09/01/23 01:20 EGAA 090120Z AUTO 24011KT 9999 -RA SCT022 SCT039 04/03 Q0985 -RA 12.7mph 4°C 3°C 2.7°C
09/01/23 00:50 EGAA 090050Z 25012KT 9999 -RA FEW014TCU 04/03 Q0984 RERA REUP -RA UP 13.8mph 4°C 3°C 2.7°C
09/01/23 00:20 EGAA 090020Z AUTO 24011KT 9999 -RA SCT021/// BKN025/// BKN035/// //////CB 05/03 Q0984 -RA 12.7mph 5°C 3°C 3.7°C
08/01/23 23:50 EGAA 082350Z AUTO 23010KT 9999 FEW013 BKN029 04/03 Q0984 11.5mph 4°C 3°C 2.7°C
08/01/23 23:20 EGAA 082320Z AUTO 22010KT 9999 SCT016 BKN021 BKN044 04/03 Q0983 11.5mph 4°C 3°C 2.7°C
08/01/23 22:50 EGAA 082250Z AUTO 22009KT 9999 SCT017 BKN025 BKN047 04/03 Q0983 10.4mph 4°C 3°C 2.7°C
08/01/23 21:50 EGAA 082150Z AUTO 22008KT 9999 SCT020 BKN030 BKN043 05/04 Q0983 9.2mph 5°C 4°C 4.0°C
08/01/23 20:20 EGAA 082020Z AUTO 23010KT 9999 BKN037 05/04 Q0982 11.5mph 5°C 4°C 4.0°C
08/01/23 19:20 EGAA 081920Z AUTO 23011KT 9999 FEW042 BKN048 05/04 Q0981 12.7mph 5°C 4°C 4.0°C
08/01/23 18:50 EGAA 081850Z AUTO 23013KT 9999 FEW020 05/04 Q0980 15.0mph 5°C 4°C 4.0°C
08/01/23 18:20 EGAA 081820Z AUTO 24013KT 9999 FEW043 05/03 Q0980 15.0mph 5°C 3°C 3.7°C
08/01/23 17:50 EGAA 081750Z AUTO 24015KT 9999 FEW027 05/03 Q0980 17.3mph 5°C 3°C 3.7°C
08/01/23 17:20 EGAA 081720Z AUTO 23014KT 9999 FEW012 05/03 Q0979 16.1mph 5°C 3°C 3.7°C
08/01/23 16:50 EGAA 081650Z AUTO 23013KT 9999 FEW015 05/03 Q0979 15.0mph 5°C 3°C 3.7°C
08/01/23 16:20 EGAA 081620Z AUTO 22012KT 9999 BKN017 05/03 Q0979 13.8mph 5°C 3°C 3.7°C
08/01/23 15:50 EGAA 081550Z AUTO 21012KT 9999 SCT017 SCT040 05/02 Q0979 13.8mph 5°C 2°C 3.4°C
08/01/23 15:20 EGAA 081520Z AUTO 21012KT 9999 -RA FEW019 SCT023 05/02 Q0978 -RA 13.8mph 5°C 2°C 3.4°C
08/01/23 14:50 EGAA 081450Z 21012KT 9999 FEW019TCU SCT042 05/02 Q0978 13.8mph 5°C 2°C 3.4°C
08/01/23 14:20 EGAA 081420Z 21012KT 180V240 9999 -RA SCT020TCU BKN033 BKN044 05/02 Q0979 REUP -RA 13.8mph 5°C 2°C 3.4°C
08/01/23 13:20 EGAA 081320Z AUTO 21012KT 9999 SCT036 BKN044 05/02 Q0979 13.8mph 5°C 2°C 3.4°C
08/01/23 12:50 EGAA 081250Z AUTO 22011KT 9999 FEW037 05/01 Q0979 12.7mph 5°C 1°C 3.1°C
08/01/23 11:50 EGAA 081150Z AUTO 21011KT 9999 FEW025 SCT029 05/01 Q0979 12.7mph 5°C 1°C 3.1°C
08/01/23 11:20 EGAA 081120Z AUTO 21014KT 9999 FEW026 05/01 Q0980 16.1mph 5°C 1°C 3.1°C
08/01/23 10:50 EGAA 081050Z AUTO 20013KT 9999 FEW026 04/01 Q0980 15.0mph 4°C 1°C 2.1°C
08/01/23 10:20 EGAA 081020Z AUTO 20014KT 9999 FEW029 04/01 Q0980 16.1mph 4°C 1°C 2.1°C
08/01/23 09:50 EGAA 080950Z AUTO 20012KT 9999 NCD 04/01 Q0980 13.8mph 4°C 1°C 2.1°C
08/01/23 08:50 EGAA 080850Z AUTO 19010KT 160V220 9999 NCD 04/01 Q0980 11.5mph 4°C 1°C 2.1°C
08/01/23 08:20 EGAA 080820Z AUTO 19011KT 9999 FEW032 04/01 Q0980 12.7mph 4°C 1°C 2.1°C
08/01/23 07:50 EGAA 080750Z AUTO 20011KT 9999 NCD 05/01 Q0980 12.7mph 5°C 1°C 3.1°C
08/01/23 07:20 EGAA 080720Z AUTO 21013KT 9999 NCD 05/01 Q0980 15.0mph 5°C 1°C 3.1°C
08/01/23 06:50 EGAA 080650Z AUTO 21012KT 9999 SCT028 05/00 Q0980 13.8mph 5°C 0°C 2.8°C
08/01/23 06:20 EGAA 080620Z AUTO 22016KT 9999 NCD 05/01 Q0980 18.4mph 5°C 1°C 3.1°C
08/01/23 05:50 EGAA 080550Z AUTO 22015G25KT 9999 SCT025 06/02 Q0980 17.3mph 28.8mph 6°C 2°C 4.4°C
08/01/23 05:20 EGAA 080520Z AUTO 21013KT 9999 SCT030 06/02 Q0980 15.0mph 6°C 2°C 4.4°C
08/01/23 04:50 EGAA 080450Z AUTO 21015KT 9999 FEW023 06/02 Q0981 17.3mph 6°C 2°C 4.4°C
08/01/23 04:20 EGAA 080420Z AUTO 21014G25KT 9999 NCD 06/02 Q0981 16.1mph 28.8mph 6°C 2°C 4.4°C
08/01/23 03:50 EGAA 080350Z AUTO 20016KT 9999 FEW031 06/02 Q0981 18.4mph 6°C 2°C 4.4°C
08/01/23 03:20 EGAA 080320Z AUTO 22014KT 9999 NCD 06/03 Q0981 16.1mph 6°C 3°C 4.7°C
08/01/23 02:50 EGAA 080250Z AUTO 22014KT 9999 NCD 06/03 Q0981 16.1mph 6°C 3°C 4.7°C
08/01/23 02:20 EGAA 080220Z AUTO 22015KT 9999 FEW026 06/03 Q0981 17.3mph 6°C 3°C 4.7°C
08/01/23 01:50 EGAA 080150Z AUTO 22015KT 9999 NCD 06/03 Q0981 17.3mph 6°C 3°C 4.7°C
08/01/23 01:20 EGAA 080120Z AUTO 22015KT 9999 NCD 06/03 Q0981 17.3mph 6°C 3°C 4.7°C
08/01/23 00:20 EGAA 080020Z AUTO 22014KT 9999 FEW021 SCT037 07/04 Q0980 16.1mph 7°C 4°C 6.0°C
07/01/23 23:50 EGAA 072350Z AUTO 21016G26KT 9999 FEW019 SCT039 07/04 Q0980 18.4mph 29.9mph 7°C 4°C 6.0°C
07/01/23 23:20 EGAA 072320Z AUTO 22015KT 9999 FEW020 SCT028 07/04 Q0980 17.3mph 7°C 4°C 6.0°C
07/01/23 22:50 EGAA 072250Z AUTO 22017KT 9999 FEW022 SCT046 07/04 Q0979 19.6mph 7°C 4°C 6.0°C
07/01/23 22:20 EGAA 072220Z AUTO 21017KT 170V230 9999 FEW042 SCT048 06/04 Q0979 19.6mph 6°C 4°C 5.0°C
07/01/23 21:50 EGAA 072150Z AUTO 21017G27KT 9999 FEW021 07/04 Q0979 19.6mph 31.1mph 7°C 4°C 6.0°C
07/01/23 21:20 EGAA 072120Z AUTO 21017KT 9999 FEW022/// //////TCU 07/03 Q0979 19.6mph 7°C 3°C 5.7°C
07/01/23 20:50 EGAA 072050Z AUTO 21018KT 9999 FEW022/// //////TCU 07/04 Q0979 REUP 20.7mph 7°C 4°C 6.0°C
07/01/23 20:20 EGAA 072020Z AUTO 20015G25KT 9999 FEW023/// //////TCU 07/04 Q0979 17.3mph 28.8mph 7°C 4°C 6.0°C
07/01/23 19:50 EGAA 071950Z AUTO 19012KT 9999 FEW025 06/03 Q0978 13.8mph 6°C 3°C 4.7°C
07/01/23 19:20 EGAA 071920Z AUTO 21018G28KT 9999 SCT022 07/03 Q0978 20.7mph 32.2mph 7°C 3°C 5.7°C
07/01/23 18:50 EGAA 071850Z AUTO 21018KT 9999 SCT025 BKN033 07/03 Q0978 20.7mph 7°C 3°C 5.7°C
07/01/23 18:20 EGAA 071820Z AUTO 21019G31KT 9999 BKN030 07/03 Q0978 21.9mph 35.7mph 7°C 3°C 5.7°C
07/01/23 17:50 EGAA 071750Z AUTO 20018G30KT 9999 BKN029 07/03 Q0978 20.7mph 34.5mph 7°C 3°C 5.7°C
07/01/23 17:20 EGAA 071720Z AUTO 19016KT 9999 SCT030 07/03 Q0978 18.4mph 7°C 3°C 5.7°C
07/01/23 16:50 EGAA 071650Z AUTO 19015G25KT 9999 BKN034 07/02 Q0979 17.3mph 28.8mph 7°C 2°C 5.4°C
07/01/23 16:20 EGAA 071620Z AUTO 18014G24KT 140V210 9999 OVC036 07/03 Q0979 16.1mph 27.6mph 7°C 3°C 5.7°C
07/01/23 15:50 EGAA 071550Z AUTO 18014G24KT 150V220 9999 FEW034 BKN041 07/03 Q0980 16.1mph 27.6mph 7°C 3°C 5.7°C
07/01/23 15:20 EGAA 071520Z AUTO 18014KT 150V210 9999 FEW035 BKN042 07/03 Q0980 16.1mph 7°C 3°C 5.7°C
07/01/23 14:50 EGAA 071450Z AUTO 19014KT 160V230 9999 FEW030 07/02 Q0980 16.1mph 7°C 2°C 5.4°C
07/01/23 14:20 EGAA 071420Z AUTO 19014KT 160V220 9999 FEW030 07/03 Q0981 16.1mph 7°C 3°C 5.7°C
07/01/23 13:50 EGAA 071350Z AUTO 19017G28KT 9999 FEW025 08/03 Q0981 19.6mph 32.2mph 8°C 3°C 6.7°C
07/01/23 12:50 EGAA 071250Z AUTO 18014G24KT 150V210 9999 SCT022 BKN029 BKN035 08/05 Q0982 16.1mph 27.6mph 8°C 5°C 7.3°C
07/01/23 12:20 EGAA 071220Z AUTO 17012G22KT 140V200 9999 FEW027 07/04 Q0983 13.8mph 25.3mph 7°C 4°C 6.0°C
07/01/23 11:50 EGAA 071150Z AUTO 16013KT 9999 NCD 07/04 Q0983 15.0mph 7°C 4°C 6.0°C
07/01/23 11:20 EGAA 071120Z AUTO 16011KT 9999 FEW041 07/04 Q0984 12.7mph 7°C 4°C 6.0°C
07/01/23 10:50 EGAA 071050Z AUTO 18013KT 9999 NCD 07/04 Q0985 15.0mph 7°C 4°C 6.0°C
07/01/23 10:20 EGAA 071020Z AUTO 18010KT 9999 NCD 06/04 Q0985 11.5mph 6°C 4°C 5.0°C
07/01/23 09:50 EGAA 070950Z AUTO 20010KT 9999 NCD 06/04 Q0986 11.5mph 6°C 4°C 5.0°C
07/01/23 09:20 EGAA 070920Z AUTO 20008KT 9999 FEW026 06/05 Q0986 9.2mph 6°C 5°C 5.3°C
07/01/23 08:50 EGAA 070850Z AUTO 18007KT 9999 FEW013 SCT039 06/05 Q0986 8.1mph 6°C 5°C 5.3°C
07/01/23 08:20 EGAA 070820Z AUTO 17007KT 9999 SCT012 BKN023 BKN049 06/05 Q0986 8.1mph 6°C 5°C 5.3°C
07/01/23 07:50 EGAA 070750Z AUTO 17006KT 9999 FEW014 BKN045 06/05 Q0987 6.9mph 6°C 5°C 5.3°C